sensor_id;sensor_type;location;lat;lon;timestamp;temperature;humidity
8463;DHT22;4268;52.506;13.462;2022-08-25T00:01:57;20.60;99.90
8463;DHT22;4268;52.506;13.462;2022-08-25T00:04:23;20.60;99.90
8463;DHT22;4268;52.506;13.462;2022-08-25T00:06:49;20.60;99.90
8463;DHT22;4268;52.506;13.462;2022-08-25T00:09:19;20.60;99.90
8463;DHT22;4268;52.506;13.462;2022-08-25T00:11:46;20.60;99.90
8463;DHT22;4268;52.506;13.462;2022-08-25T00:14:17;20.50;99.90
8463;DHT22;4268;52.506;13.462;2022-08-25T00:16:43;20.50;99.90
8463;DHT22;4268;52.506;13.462;2022-08-25T00:19:12;20.50;99.90
8463;DHT22;4268;52.506;13.462;2022-08-25T00:21:39;20.50;99.90
8463;DHT22;4268;52.506;13.462;2022-08-25T00:24:05;20.40;99.90
8463;DHT22;4268;52.506;13.462;2022-08-25T00:26:31;20.40;99.90
8463;DHT22;4268;52.506;13.462;2022-08-25T00:28:56;20.40;99.90
8463;DHT22;4268;52.506;13.462;2022-08-25T00:31:22;20.40;99.90
8463;DHT22;4268;52.506;13.462;2022-08-25T00:33:49;20.40;99.90
8463;DHT22;4268;52.506;13.462;2022-08-25T00:36:15;20.40;99.90
8463;DHT22;4268;52.506;13.462;2022-08-25T00:38:43;20.40;99.90
8463;DHT22;4268;52.506;13.462;2022-08-25T00:41:10;20.30;99.90
8463;DHT22;4268;52.506;13.462;2022-08-25T00:43:47;20.30;99.90
8463;DHT22;4268;52.506;13.462;2022-08-25T00:46:17;20.30;99.90
8463;DHT22;4268;52.506;13.462;2022-08-25T00:48:44;20.30;99.90
8463;DHT22;4268;52.506;13.462;2022-08-25T00:51:17;20.30;99.90
8463;DHT22;4268;52.506;13.462;2022-08-25T00:53:45;20.30;99.90
8463;DHT22;4268;52.506;13.462;2022-08-25T00:56:12;20.30;99.90
8463;DHT22;4268;52.506;13.462;2022-08-25T00:58:39;20.30;99.90
8463;DHT22;4268;52.506;13.462;2022-08-25T01:01:07;20.30;99.90
8463;DHT22;4268;52.506;13.462;2022-08-25T01:03:33;20.20;99.90
8463;DHT22;4268;52.506;13.462;2022-08-25T01:06:01;20.20;99.90
8463;DHT22;4268;52.506;13.462;2022-08-25T01:08:28;20.20;99.90
8463;DHT22;4268;52.506;13.462;2022-08-25T01:10:58;20.20;99.90
8463;DHT22;4268;52.506;13.462;2022-08-25T01:13:31;20.20;99.90
8463;DHT22;4268;52.506;13.462;2022-08-25T01:15:58;20.10;99.90
8463;DHT22;4268;52.506;13.462;2022-08-25T01:18:25;20.10;99.90
8463;DHT22;4268;52.506;13.462;2022-08-25T01:20:52;20.10;99.90
8463;DHT22;4268;52.506;13.462;2022-08-25T01:23:19;20.10;99.90
8463;DHT22;4268;52.506;13.462;2022-08-25T01:25:55;20.10;99.90
8463;DHT22;4268;52.506;13.462;2022-08-25T01:28:23;20.10;99.90
8463;DHT22;4268;52.506;13.462;2022-08-25T01:30:49;20.10;99.90
8463;DHT22;4268;52.506;13.462;2022-08-25T01:33:15;20.10;99.90
8463;DHT22;4268;52.506;13.462;2022-08-25T01:35:43;20.10;99.90
8463;DHT22;4268;52.506;13.462;2022-08-25T01:38:11;20.10;99.90
8463;DHT22;4268;52.506;13.462;2022-08-25T01:40:37;20.00;99.90
8463;DHT22;4268;52.506;13.462;2022-08-25T01:45:37;20.00;99.90
8463;DHT22;4268;52.506;13.462;2022-08-25T01:48:04;20.00;99.90
8463;DHT22;4268;52.506;13.462;2022-08-25T01:50:30;20.00;99.90
8463;DHT22;4268;52.506;13.462;2022-08-25T01:53:02;20.00;99.90
8463;DHT22;4268;52.506;13.462;2022-08-25T01:55:29;20.00;99.90
8463;DHT22;4268;52.506;13.462;2022-08-25T01:57:56;20.00;99.90
8463;DHT22;4268;52.506;13.462;2022-08-25T02:00:22;20.00;99.90
8463;DHT22;4268;52.506;13.462;2022-08-25T02:02:48;20.00;99.90
8463;DHT22;4268;52.506;13.462;2022-08-25T02:05:14;20.00;99.90
8463;DHT22;4268;52.506;13.462;2022-08-25T02:07:43;20.00;99.90
8463;DHT22;4268;52.506;13.462;2022-08-25T02:10:10;20.00;99.90
8463;DHT22;4268;52.506;13.462;2022-08-25T02:12:36;19.90;99.90
8463;DHT22;4268;52.506;13.462;2022-08-25T02:15:04;19.90;99.90
8463;DHT22;4268;52.506;13.462;2022-08-25T02:17:30;19.90;99.90
8463;DHT22;4268;52.506;13.462;2022-08-25T02:19:56;19.90;99.90
8463;DHT22;4268;52.506;13.462;2022-08-25T02:22:22;19.90;99.90
8463;DHT22;4268;52.506;13.462;2022-08-25T02:24:48;19.90;99.90
8463;DHT22;4268;52.506;13.462;2022-08-25T02:27:14;19.90;99.90
8463;DHT22;4268;52.506;13.462;2022-08-25T02:29:40;19.80;99.90
8463;DHT22;4268;52.506;13.462;2022-08-25T02:32:06;19.80;99.90
8463;DHT22;4268;52.506;13.462;2022-08-25T02:34:33;19.80;99.90
8463;DHT22;4268;52.506;13.462;2022-08-25T02:36:59;19.80;99.90
8463;DHT22;4268;52.506;13.462;2022-08-25T02:39:24;19.80;99.90
8463;DHT22;4268;52.506;13.462;2022-08-25T02:41:50;19.80;99.90
8463;DHT22;4268;52.506;13.462;2022-08-25T02:44:15;19.80;99.90
8463;DHT22;4268;52.506;13.462;2022-08-25T02:46:41;19.70;99.90
8463;DHT22;4268;52.506;13.462;2022-08-25T02:49:06;19.70;99.90
8463;DHT22;4268;52.506;13.462;2022-08-25T02:51:34;19.70;99.90
8463;DHT22;4268;52.506;13.462;2022-08-25T02:54:01;19.70;99.90
8463;DHT22;4268;52.506;13.462;2022-08-25T02:56:28;19.70;99.90
8463;DHT22;4268;52.506;13.462;2022-08-25T02:58:54;19.70;99.90
8463;DHT22;4268;52.506;13.462;2022-08-25T03:01:20;19.70;99.90
8463;DHT22;4268;52.506;13.462;2022-08-25T03:03:47;19.70;99.90
8463;DHT22;4268;52.506;13.462;2022-08-25T03:06:16;19.70;99.90
8463;DHT22;4268;52.506;13.462;2022-08-25T03:08:43;19.60;99.90
8463;DHT22;4268;52.506;13.462;2022-08-25T03:11:09;19.60;99.90
8463;DHT22;4268;52.506;13.462;2022-08-25T03:13:35;19.60;99.90
8463;DHT22;4268;52.506;13.462;2022-08-25T03:16:02;19.60;99.90
8463;DHT22;4268;52.506;13.462;2022-08-25T03:18:28;19.60;99.90
8463;DHT22;4268;52.506;13.462;2022-08-25T03:20:53;19.60;99.90
8463;DHT22;4268;52.506;13.462;2022-08-25T03:23:19;19.50;99.90
8463;DHT22;4268;52.506;13.462;2022-08-25T03:25:45;19.50;99.90
8463;DHT22;4268;52.506;13.462;2022-08-25T03:28:29;19.50;99.90
8463;DHT22;4268;52.506;13.462;2022-08-25T03:30:58;19.60;99.90
8463;DHT22;4268;52.506;13.462;2022-08-25T03:33:25;19.50;99.90
8463;DHT22;4268;52.506;13.462;2022-08-25T03:35:51;19.50;99.90
8463;DHT22;4268;52.506;13.462;2022-08-25T03:38:16;19.50;99.90
8463;DHT22;4268;52.506;13.462;2022-08-25T03:40:41;19.50;99.90
8463;DHT22;4268;52.506;13.462;2022-08-25T03:43:07;19.40;99.90
8463;DHT22;4268;52.506;13.462;2022-08-25T03:45:33;19.40;99.90
8463;DHT22;4268;52.506;13.462;2022-08-25T03:47:58;19.40;99.90
8463;DHT22;4268;52.506;13.462;2022-08-25T03:50:24;19.40;99.90
8463;DHT22;4268;52.506;13.462;2022-08-25T03:52:51;19.40;99.90
8463;DHT22;4268;52.506;13.462;2022-08-25T03:55:18;19.40;99.90
8463;DHT22;4268;52.506;13.462;2022-08-25T03:57:44;19.40;99.90
8463;DHT22;4268;52.506;13.462;2022-08-25T04:00:10;19.40;99.90
8463;DHT22;4268;52.506;13.462;2022-08-25T04:02:39;19.40;99.90
8463;DHT22;4268;52.506;13.462;2022-08-25T04:05:06;19.30;99.90
8463;DHT22;4268;52.506;13.462;2022-08-25T04:07:31;19.40;99.90
8463;DHT22;4268;52.506;13.462;2022-08-25T04:09:57;19.30;99.90
8463;DHT22;4268;52.506;13.462;2022-08-25T04:12:23;19.30;99.90
8463;DHT22;4268;52.506;13.462;2022-08-25T04:14:49;19.30;99.90
8463;DHT22;4268;52.506;13.462;2022-08-25T04:17:14;19.30;99.90
8463;DHT22;4268;52.506;13.462;2022-08-25T04:19:40;19.30;99.90
8463;DHT22;4268;52.506;13.462;2022-08-25T04:22:06;19.30;99.90
8463;DHT22;4268;52.506;13.462;2022-08-25T04:24:31;19.30;99.90
8463;DHT22;4268;52.506;13.462;2022-08-25T04:26:57;19.30;99.90
8463;DHT22;4268;52.506;13.462;2022-08-25T04:29:23;19.30;99.90
8463;DHT22;4268;52.506;13.462;2022-08-25T04:31:50;19.30;99.90
8463;DHT22;4268;52.506;13.462;2022-08-25T04:34:17;19.30;99.90
8463;DHT22;4268;52.506;13.462;2022-08-25T04:36:43;19.40;99.90
8463;DHT22;4268;52.506;13.462;2022-08-25T04:39:09;19.40;99.90
8463;DHT22;4268;52.506;13.462;2022-08-25T04:41:34;19.30;99.90
8463;DHT22;4268;52.506;13.462;2022-08-25T04:44:00;19.30;99.90
8463;DHT22;4268;52.506;13.462;2022-08-25T04:46:30;19.30;99.90
8463;DHT22;4268;52.506;13.462;2022-08-25T04:48:57;19.30;99.90
8463;DHT22;4268;52.506;13.462;2022-08-25T04:51:28;19.40;99.90
8463;DHT22;4268;52.506;13.462;2022-08-25T04:53:57;19.40;99.90
8463;DHT22;4268;52.506;13.462;2022-08-25T04:56:23;19.40;99.90
8463;DHT22;4268;52.506;13.462;2022-08-25T04:58:50;19.60;99.90
8463;DHT22;4268;52.506;13.462;2022-08-25T05:01:19;19.50;99.90
8463;DHT22;4268;52.506;13.462;2022-08-25T05:03:46;19.50;99.90
8463;DHT22;4268;52.506;13.462;2022-08-25T05:06:12;19.60;99.90
8463;DHT22;4268;52.506;13.462;2022-08-25T05:08:38;19.60;99.90
8463;DHT22;4268;52.506;13.462;2022-08-25T05:11:05;19.60;99.90
8463;DHT22;4268;52.506;13.462;2022-08-25T05:13:31;19.60;99.90
8463;DHT22;4268;52.506;13.462;2022-08-25T05:15:58;19.70;99.90
8463;DHT22;4268;52.506;13.462;2022-08-25T05:18:26;19.70;99.90
8463;DHT22;4268;52.506;13.462;2022-08-25T05:20:54;19.70;99.90
8463;DHT22;4268;52.506;13.462;2022-08-25T05:23:21;19.80;99.90
8463;DHT22;4268;52.506;13.462;2022-08-25T05:25:48;19.70;99.90
8463;DHT22;4268;52.506;13.462;2022-08-25T05:28:14;19.70;99.90
8463;DHT22;4268;52.506;13.462;2022-08-25T05:30:41;19.70;99.90
8463;DHT22;4268;52.506;13.462;2022-08-25T05:33:08;19.70;99.90
8463;DHT22;4268;52.506;13.462;2022-08-25T05:35:34;19.60;99.90
8463;DHT22;4268;52.506;13.462;2022-08-25T05:38:01;19.60;99.90
8463;DHT22;4268;52.506;13.462;2022-08-25T05:40:26;19.70;99.90
8463;DHT22;4268;52.506;13.462;2022-08-25T05:42:53;19.60;99.90
8463;DHT22;4268;52.506;13.462;2022-08-25T05:45:18;19.70;99.90
8463;DHT22;4268;52.506;13.462;2022-08-25T05:47:44;19.70;99.90
8463;DHT22;4268;52.506;13.462;2022-08-25T05:50:10;19.70;99.90
8463;DHT22;4268;52.506;13.462;2022-08-25T05:52:36;19.70;99.90
8463;DHT22;4268;52.506;13.462;2022-08-25T05:55:03;19.80;99.90
8463;DHT22;4268;52.506;13.462;2022-08-25T05:57:29;19.30;99.90
8463;DHT22;4268;52.506;13.462;2022-08-25T05:59:54;20.00;99.90
8463;DHT22;4268;52.506;13.462;2022-08-25T06:02:20;19.90;99.90
8463;DHT22;4268;52.506;13.462;2022-08-25T06:05:04;19.90;99.90
8463;DHT22;4268;52.506;13.462;2022-08-25T06:07:30;20.00;99.90
8463;DHT22;4268;52.506;13.462;2022-08-25T06:09:56;20.00;99.90
8463;DHT22;4268;52.506;13.462;2022-08-25T06:12:22;20.10;99.90
8463;DHT22;4268;52.506;13.462;2022-08-25T06:14:47;20.10;99.90
8463;DHT22;4268;52.506;13.462;2022-08-25T06:17:14;20.00;99.90
8463;DHT22;4268;52.506;13.462;2022-08-25T06:19:40;20.00;99.90
8463;DHT22;4268;52.506;13.462;2022-08-25T06:22:05;20.10;99.90
8463;DHT22;4268;52.506;13.462;2022-08-25T06:24:31;20.00;99.90
8463;DHT22;4268;52.506;13.462;2022-08-25T06:26:57;20.10;99.90
8463;DHT22;4268;52.506;13.462;2022-08-25T06:29:23;20.20;99.90
8463;DHT22;4268;52.506;13.462;2022-08-25T06:31:48;20.20;99.90
8463;DHT22;4268;52.506;13.462;2022-08-25T06:34:14;20.30;99.90
8463;DHT22;4268;52.506;13.462;2022-08-25T06:36:41;20.30;99.90
8463;DHT22;4268;52.506;13.462;2022-08-25T06:39:07;20.20;99.90
8463;DHT22;4268;52.506;13.462;2022-08-25T06:41:33;20.10;99.90
8463;DHT22;4268;52.506;13.462;2022-08-25T06:43:58;20.10;99.90
8463;DHT22;4268;52.506;13.462;2022-08-25T06:46:26;20.10;99.90
8463;DHT22;4268;52.506;13.462;2022-08-25T06:48:53;20.20;99.90
8463;DHT22;4268;52.506;13.462;2022-08-25T06:51:20;20.20;99.90
8463;DHT22;4268;52.506;13.462;2022-08-25T06:53:47;20.20;99.90
8463;DHT22;4268;52.506;13.462;2022-08-25T06:56:14;20.20;99.90
8463;DHT22;4268;52.506;13.462;2022-08-25T06:58:41;20.20;99.90
8463;DHT22;4268;52.506;13.462;2022-08-25T07:01:08;20.30;99.90
8463;DHT22;4268;52.506;13.462;2022-08-25T07:03:34;20.40;99.90
8463;DHT22;4268;52.506;13.462;2022-08-25T07:06:00;20.50;99.90
8463;DHT22;4268;52.506;13.462;2022-08-25T07:08:25;20.60;99.90
8463;DHT22;4268;52.506;13.462;2022-08-25T07:10:51;20.50;99.90
8463;DHT22;4268;52.506;13.462;2022-08-25T07:13:17;20.50;99.90
8463;DHT22;4268;52.506;13.462;2022-08-25T07:15:42;20.60;99.90
8463;DHT22;4268;52.506;13.462;2022-08-25T07:18:09;21.50;99.90
8463;DHT22;4268;52.506;13.462;2022-08-25T07:20:37;20.70;99.90
8463;DHT22;4268;52.506;13.462;2022-08-25T07:23:03;20.80;99.90
8463;DHT22;4268;52.506;13.462;2022-08-25T07:25:29;21.00;99.90
8463;DHT22;4268;52.506;13.462;2022-08-25T07:27:54;21.10;99.90
8463;DHT22;4268;52.506;13.462;2022-08-25T07:30:20;21.20;99.90
8463;DHT22;4268;52.506;13.462;2022-08-25T07:32:46;21.30;99.90
8463;DHT22;4268;52.506;13.462;2022-08-25T07:35:11;21.40;99.90
8463;DHT22;4268;52.506;13.462;2022-08-25T07:37:44;21.40;99.90
8463;DHT22;4268;52.506;13.462;2022-08-25T07:40:16;21.50;99.90
8463;DHT22;4268;52.506;13.462;2022-08-25T07:42:43;21.60;99.90
8463;DHT22;4268;52.506;13.462;2022-08-25T07:45:09;21.70;99.90
8463;DHT22;4268;52.506;13.462;2022-08-25T07:47:36;21.70;99.90
8463;DHT22;4268;52.506;13.462;2022-08-25T07:50:03;21.70;99.90
8463;DHT22;4268;52.506;13.462;2022-08-25T07:52:29;21.80;99.90
8463;DHT22;4268;52.506;13.462;2022-08-25T07:54:55;21.90;99.90
8463;DHT22;4268;52.506;13.462;2022-08-25T07:57:20;21.90;99.90
8463;DHT22;4268;52.506;13.462;2022-08-25T07:59:46;21.80;99.90
8463;DHT22;4268;52.506;13.462;2022-08-25T08:02:12;22.50;99.90
8463;DHT22;4268;52.506;13.462;2022-08-25T08:04:38;22.20;99.90
8463;DHT22;4268;52.506;13.462;2022-08-25T08:07:04;22.50;99.90
8463;DHT22;4268;52.506;13.462;2022-08-25T08:09:31;23.60;99.90
8463;DHT22;4268;52.506;13.462;2022-08-25T08:11:56;23.00;99.90
8463;DHT22;4268;52.506;13.462;2022-08-25T08:14:22;22.80;99.90
8463;DHT22;4268;52.506;13.462;2022-08-25T08:16:48;23.00;99.90
8463;DHT22;4268;52.506;13.462;2022-08-25T08:19:15;23.10;99.90
8463;DHT22;4268;52.506;13.462;2022-08-25T08:21:41;23.40;99.90
8463;DHT22;4268;52.506;13.462;2022-08-25T08:24:07;22.90;99.90
8463;DHT22;4268;52.506;13.462;2022-08-25T08:26:33;22.90;99.90
8463;DHT22;4268;52.506;13.462;2022-08-25T08:28:59;23.00;99.90
8463;DHT22;4268;52.506;13.462;2022-08-25T08:31:25;23.00;99.90
8463;DHT22;4268;52.506;13.462;2022-08-25T08:33:52;23.50;99.90
8463;DHT22;4268;52.506;13.462;2022-08-25T08:36:18;23.40;99.90
8463;DHT22;4268;52.506;13.462;2022-08-25T08:38:44;23.20;99.90
8463;DHT22;4268;52.506;13.462;2022-08-25T08:47:22;23.40;99.90
8463;DHT22;4268;52.506;13.462;2022-08-25T08:52:54;23.60;99.90
8463;DHT22;4268;52.506;13.462;2022-08-25T08:55:35;23.70;99.90
8463;DHT22;4268;52.506;13.462;2022-08-25T08:58:06;23.80;99.90
8463;DHT22;4268;52.506;13.462;2022-08-25T09:00:41;24.10;99.90
8463;DHT22;4268;52.506;13.462;2022-08-25T09:08:21;24.50;99.90
8463;DHT22;4268;52.506;13.462;2022-08-25T09:11:00;24.50;99.90
8463;DHT22;4268;52.506;13.462;2022-08-25T09:16:35;24.50;99.90
8463;DHT22;4268;52.506;13.462;2022-08-25T09:19:30;24.70;99.90
8463;DHT22;4268;52.506;13.462;2022-08-25T09:22:05;24.80;99.90
8463;DHT22;4268;52.506;13.462;2022-08-25T09:24:52;24.80;99.90
8463;DHT22;4268;52.506;13.462;2022-08-25T09:30:09;24.40;99.90
8463;DHT22;4268;52.506;13.462;2022-08-25T09:32:45;24.20;99.90
8463;DHT22;4268;52.506;13.462;2022-08-25T09:35:21;24.20;99.90
8463;DHT22;4268;52.506;13.462;2022-08-25T09:37:59;24.10;99.90
8463;DHT22;4268;52.506;13.462;2022-08-25T09:40:29;24.10;99.90
8463;DHT22;4268;52.506;13.462;2022-08-25T09:42:58;24.30;99.90
8463;DHT22;4268;52.506;13.462;2022-08-25T09:45:35;24.30;99.90
8463;DHT22;4268;52.506;13.462;2022-08-25T09:48:33;24.30;99.90
8463;DHT22;4268;52.506;13.462;2022-08-25T09:51:30;24.20;99.90
8463;DHT22;4268;52.506;13.462;2022-08-25T09:54:02;24.10;99.90
8463;DHT22;4268;52.506;13.462;2022-08-25T09:56:31;24.20;99.90
8463;DHT22;4268;52.506;13.462;2022-08-25T09:59:22;24.40;99.90
8463;DHT22;4268;52.506;13.462;2022-08-25T10:01:50;24.50;99.90
8463;DHT22;4268;52.506;13.462;2022-08-25T10:04:25;24.60;99.90
8463;DHT22;4268;52.506;13.462;2022-08-25T10:06:51;24.60;99.90
8463;DHT22;4268;52.506;13.462;2022-08-25T10:09:44;24.70;99.90
8463;DHT22;4268;52.506;13.462;2022-08-25T10:12:22;24.80;99.90
8463;DHT22;4268;52.506;13.462;2022-08-25T10:14:49;24.70;99.90
8463;DHT22;4268;52.506;13.462;2022-08-25T10:17:24;24.60;99.90
8463;DHT22;4268;52.506;13.462;2022-08-25T10:19:52;24.60;99.90
8463;DHT22;4268;52.506;13.462;2022-08-25T10:22:25;24.60;99.90
8463;DHT22;4268;52.506;13.462;2022-08-25T10:24:58;24.60;99.90
8463;DHT22;4268;52.506;13.462;2022-08-25T10:30:50;25.00;99.90
8463;DHT22;4268;52.506;13.462;2022-08-25T10:36:21;25.50;99.90
8463;DHT22;4268;52.506;13.462;2022-08-25T10:38:56;25.60;99.90
8463;DHT22;4268;52.506;13.462;2022-08-25T10:41:50;25.60;99.90
8463;DHT22;4268;52.506;13.462;2022-08-25T10:44:36;25.60;99.90
8463;DHT22;4268;52.506;13.462;2022-08-25T10:53:27;25.80;99.90
8463;DHT22;4268;52.506;13.462;2022-08-25T10:56:06;26.00;99.90
8463;DHT22;4268;52.506;13.462;2022-08-25T10:58:45;26.00;99.90
8463;DHT22;4268;52.506;13.462;2022-08-25T11:01:37;25.90;99.90
8463;DHT22;4268;52.506;13.462;2022-08-25T11:04:09;25.70;99.90
8463;DHT22;4268;52.506;13.462;2022-08-25T11:06:42;25.60;99.90
8463;DHT22;4268;52.506;13.462;2022-08-25T11:09:14;25.70;99.90
8463;DHT22;4268;52.506;13.462;2022-08-25T11:11:53;25.80;99.90
8463;DHT22;4268;52.506;13.462;2022-08-25T11:14:34;25.60;99.90
8463;DHT22;4268;52.506;13.462;2022-08-25T11:19:38;25.50;99.90
8463;DHT22;4268;52.506;13.462;2022-08-25T11:27:40;26.10;99.90
8463;DHT22;4268;52.506;13.462;2022-08-25T11:30:11;26.30;99.90
8463;DHT22;4268;52.506;13.462;2022-08-25T11:32:38;26.40;99.90
8463;DHT22;4268;52.506;13.462;2022-08-25T11:35:11;26.40;99.90
8463;DHT22;4268;52.506;13.462;2022-08-25T11:43:39;26.50;99.90
8463;DHT22;4268;52.506;13.462;2022-08-25T11:46:40;26.70;99.90
8463;DHT22;4268;52.506;13.462;2022-08-25T11:51:47;27.10;99.90
8463;DHT22;4268;52.506;13.462;2022-08-25T11:54:33;27.10;99.90
8463;DHT22;4268;52.506;13.462;2022-08-25T11:57:04;26.90;99.90
8463;DHT22;4268;52.506;13.462;2022-08-25T12:07:59;26.30;99.90
8463;DHT22;4268;52.506;13.462;2022-08-25T12:11:04;26.30;99.90
8463;DHT22;4268;52.506;13.462;2022-08-25T12:13:48;26.40;99.90
8463;DHT22;4268;52.506;13.462;2022-08-25T12:16:37;26.40;99.90
8463;DHT22;4268;52.506;13.462;2022-08-25T12:21:48;26.60;99.90
8463;DHT22;4268;52.506;13.462;2022-08-25T12:24:17;26.70;99.90
8463;DHT22;4268;52.506;13.462;2022-08-25T12:26:50;26.80;99.90
8463;DHT22;4268;52.506;13.462;2022-08-25T12:29:37;26.90;99.90
8463;DHT22;4268;52.506;13.462;2022-08-25T12:32:28;27.10;99.90
8463;DHT22;4268;52.506;13.462;2022-08-25T12:35:25;27.30;99.90
8463;DHT22;4268;52.506;13.462;2022-08-25T12:37:57;27.50;99.90
8463;DHT22;4268;52.506;13.462;2022-08-25T12:40:31;27.60;99.90
8463;DHT22;4268;52.506;13.462;2022-08-25T12:43:05;27.70;99.90
8463;DHT22;4268;52.506;13.462;2022-08-25T12:45:36;27.70;99.90
8463;DHT22;4268;52.506;13.462;2022-08-25T12:50:57;27.40;99.90
8463;DHT22;4268;52.506;13.462;2022-08-25T12:53:56;27.20;99.90
8463;DHT22;4268;52.506;13.462;2022-08-25T12:56:46;27.00;99.90
8463;DHT22;4268;52.506;13.462;2022-08-25T12:59:20;26.90;99.90
8463;DHT22;4268;52.506;13.462;2022-08-25T13:07:48;27.10;99.90
8463;DHT22;4268;52.506;13.462;2022-08-25T13:10:50;27.10;99.90
8463;DHT22;4268;52.506;13.462;2022-08-25T13:13:44;27.10;99.90
8463;DHT22;4268;52.506;13.462;2022-08-25T13:16:23;27.20;99.90
8463;DHT22;4268;52.506;13.462;2022-08-25T13:18:50;27.20;99.90
8463;DHT22;4268;52.506;13.462;2022-08-25T13:21:19;27.30;99.90
8463;DHT22;4268;52.506;13.462;2022-08-25T13:23:49;27.30;99.90
8463;DHT22;4268;52.506;13.462;2022-08-25T13:26:27;27.00;99.90
8463;DHT22;4268;52.506;13.462;2022-08-25T13:31:28;27.30;99.90
8463;DHT22;4268;52.506;13.462;2022-08-25T13:33:55;27.40;99.90
8463;DHT22;4268;52.506;13.462;2022-08-25T13:36:24;27.50;99.90
8463;DHT22;4268;52.506;13.462;2022-08-25T13:39:20;27.60;99.90
8463;DHT22;4268;52.506;13.462;2022-08-25T13:41:54;27.60;99.90
8463;DHT22;4268;52.506;13.462;2022-08-25T13:44:22;27.40;99.90
8463;DHT22;4268;52.506;13.462;2022-08-25T13:47:07;27.30;99.90
8463;DHT22;4268;52.506;13.462;2022-08-25T13:49:34;27.20;99.90
8463;DHT22;4268;52.506;13.462;2022-08-25T13:52:00;27.20;99.90
8463;DHT22;4268;52.506;13.462;2022-08-25T13:54:29;27.20;99.90
8463;DHT22;4268;52.506;13.462;2022-08-25T13:57:18;27.00;99.90
8463;DHT22;4268;52.506;13.462;2022-08-25T13:59:50;27.20;99.90
8463;DHT22;4268;52.506;13.462;2022-08-25T14:05:04;27.40;99.90
8463;DHT22;4268;52.506;13.462;2022-08-25T14:07:30;27.60;99.90
8463;DHT22;4268;52.506;13.462;2022-08-25T14:10:29;29.20;99.90
8463;DHT22;4268;52.506;13.462;2022-08-25T14:13:30;27.70;99.90
8463;DHT22;4268;52.506;13.462;2022-08-25T14:16:20;27.70;99.90
8463;DHT22;4268;52.506;13.462;2022-08-25T14:18:50;27.60;99.90
8463;DHT22;4268;52.506;13.462;2022-08-25T14:21:19;27.50;99.90
8463;DHT22;4268;52.506;13.462;2022-08-25T14:23:46;27.30;99.90
8463;DHT22;4268;52.506;13.462;2022-08-25T14:26:11;27.30;99.90
8463;DHT22;4268;52.506;13.462;2022-08-25T14:28:37;27.30;99.90
8463;DHT22;4268;52.506;13.462;2022-08-25T14:31:13;27.30;99.90
8463;DHT22;4268;52.506;13.462;2022-08-25T14:33:54;27.40;99.90
8463;DHT22;4268;52.506;13.462;2022-08-25T14:36:21;27.40;99.90
8463;DHT22;4268;52.506;13.462;2022-08-25T14:38:46;27.30;99.90
8463;DHT22;4268;52.506;13.462;2022-08-25T14:41:12;27.30;99.90
8463;DHT22;4268;52.506;13.462;2022-08-25T14:43:37;27.20;99.90
8463;DHT22;4268;52.506;13.462;2022-08-25T14:46:09;27.20;99.90
8463;DHT22;4268;52.506;13.462;2022-08-25T14:48:43;27.10;99.90
8463;DHT22;4268;52.506;13.462;2022-08-25T14:51:10;27.10;99.90
8463;DHT22;4268;52.506;13.462;2022-08-25T14:53:36;27.10;99.90
8463;DHT22;4268;52.506;13.462;2022-08-25T14:56:02;27.10;99.90
8463;DHT22;4268;52.506;13.462;2022-08-25T14:58:28;27.20;99.90
8463;DHT22;4268;52.506;13.462;2022-08-25T15:00:54;27.20;99.90
8463;DHT22;4268;52.506;13.462;2022-08-25T15:03:26;27.30;99.90
8463;DHT22;4268;52.506;13.462;2022-08-25T15:05:53;27.30;99.90
8463;DHT22;4268;52.506;13.462;2022-08-25T15:08:19;27.40;99.90
8463;DHT22;4268;52.506;13.462;2022-08-25T15:11:03;27.40;99.90
8463;DHT22;4268;52.506;13.462;2022-08-25T15:13:29;27.30;99.90
8463;DHT22;4268;52.506;13.462;2022-08-25T15:15:54;27.30;99.90
8463;DHT22;4268;52.506;13.462;2022-08-25T15:18:20;27.20;99.90
8463;DHT22;4268;52.506;13.462;2022-08-25T15:20:46;27.10;99.90
8463;DHT22;4268;52.506;13.462;2022-08-25T15:23:12;27.00;99.90
8463;DHT22;4268;52.506;13.462;2022-08-25T15:25:39;27.00;99.90
8463;DHT22;4268;52.506;13.462;2022-08-25T15:28:06;26.90;99.90
8463;DHT22;4268;52.506;13.462;2022-08-25T15:30:33;26.90;99.90
8463;DHT22;4268;52.506;13.462;2022-08-25T15:32:59;26.90;99.90
8463;DHT22;4268;52.506;13.462;2022-08-25T15:35:25;27.00;99.90
8463;DHT22;4268;52.506;13.462;2022-08-25T15:37:50;27.10;99.90
8463;DHT22;4268;52.506;13.462;2022-08-25T15:40:17;27.10;99.90
8463;DHT22;4268;52.506;13.462;2022-08-25T15:42:43;27.10;99.90
8463;DHT22;4268;52.506;13.462;2022-08-25T15:45:09;27.10;99.90
8463;DHT22;4268;52.506;13.462;2022-08-25T15:47:35;27.10;99.90
8463;DHT22;4268;52.506;13.462;2022-08-25T15:50:08;27.10;99.90
8463;DHT22;4268;52.506;13.462;2022-08-25T15:52:34;27.10;99.90
8463;DHT22;4268;52.506;13.462;2022-08-25T15:55:00;27.10;99.90
8463;DHT22;4268;52.506;13.462;2022-08-25T15:57:26;27.10;99.90
8463;DHT22;4268;52.506;13.462;2022-08-25T15:59:53;27.10;99.90
8463;DHT22;4268;52.506;13.462;2022-08-25T16:02:19;27.10;99.90
8463;DHT22;4268;52.506;13.462;2022-08-25T16:04:45;27.10;99.90
8463;DHT22;4268;52.506;13.462;2022-08-25T16:07:10;27.10;99.90
8463;DHT22;4268;52.506;13.462;2022-08-25T16:09:36;27.10;99.90
8463;DHT22;4268;52.506;13.462;2022-08-25T16:12:02;27.10;99.90
8463;DHT22;4268;52.506;13.462;2022-08-25T16:14:27;27.10;99.90
8463;DHT22;4268;52.506;13.462;2022-08-25T16:16:53;27.10;99.90
8463;DHT22;4268;52.506;13.462;2022-08-25T16:19:19;27.10;99.90
8463;DHT22;4268;52.506;13.462;2022-08-25T16:21:44;27.20;99.90
8463;DHT22;4268;52.506;13.462;2022-08-25T16:24:10;27.20;99.90
8463;DHT22;4268;52.506;13.462;2022-08-25T16:26:37;27.20;99.90
8463;DHT22;4268;52.506;13.462;2022-08-25T16:29:09;27.10;99.90
8463;DHT22;4268;52.506;13.462;2022-08-25T16:31:36;27.10;99.90
8463;DHT22;4268;52.506;13.462;2022-08-25T16:34:02;27.00;99.90
8463;DHT22;4268;52.506;13.462;2022-08-25T16:36:28;26.90;99.90
8463;DHT22;4268;52.506;13.462;2022-08-25T16:38:55;26.80;99.90
8463;DHT22;4268;52.506;13.462;2022-08-25T16:41:24;26.70;99.90
8463;DHT22;4268;52.506;13.462;2022-08-25T16:43:50;26.70;99.90
8463;DHT22;4268;52.506;13.462;2022-08-25T16:46:19;26.70;99.90
8463;DHT22;4268;52.506;13.462;2022-08-25T16:48:44;26.60;99.90
8463;DHT22;4268;52.506;13.462;2022-08-25T16:51:13;26.60;99.90
8463;DHT22;4268;52.506;13.462;2022-08-25T16:53:39;26.60;99.90
8463;DHT22;4268;52.506;13.462;2022-08-25T16:56:23;26.50;99.90
8463;DHT22;4268;52.506;13.462;2022-08-25T16:58:57;26.50;99.90
8463;DHT22;4268;52.506;13.462;2022-08-25T17:01:24;26.50;99.90
8463;DHT22;4268;52.506;13.462;2022-08-25T17:03:50;26.50;99.90
8463;DHT22;4268;52.506;13.462;2022-08-25T17:06:16;26.50;99.90
8463;DHT22;4268;52.506;13.462;2022-08-25T17:08:42;26.40;99.90
8463;DHT22;4268;52.506;13.462;2022-08-25T17:11:13;26.30;99.90
8463;DHT22;4268;52.506;13.462;2022-08-25T17:13:42;26.30;99.90
8463;DHT22;4268;52.506;13.462;2022-08-25T17:16:08;26.30;99.90
8463;DHT22;4268;52.506;13.462;2022-08-25T17:18:35;26.30;99.90